sensor_id;sensor_type;location;lat;lon;timestamp;pressure;altitude;pressure_sealevel;temperature;humidity
6435;BME280;3250;42.694;23.278;2023-03-04T00:01:05;94858.88;;;6.83;92.48
6435;BME280;3250;42.694;23.278;2023-03-04T00:03:30;94863.09;;;6.63;93.46
6435;BME280;3250;42.694;23.278;2023-03-04T00:05:56;94854.34;;;6.34;94.16
6435;BME280;3250;42.694;23.278;2023-03-04T00:08:21;94813.00;;;6.02;95.22
6435;BME280;3250;42.694;23.278;2023-03-04T00:10:47;94862.31;;;6.26;95.82
6435;BME280;3250;42.694;23.278;2023-03-04T00:13:12;94809.50;;;5.95;95.98
6435;BME280;3250;42.694;23.278;2023-03-04T00:15:38;94856.03;;;6.06;96.51
6435;BME280;3250;42.694;23.278;2023-03-04T00:18:03;94840.47;;;5.98;96.88
6435;BME280;3250;42.694;23.278;2023-03-04T00:20:28;94838.81;;;6.12;96.95
6435;BME280;3250;42.694;23.278;2023-03-04T00:22:54;94842.84;;;6.29;96.28
6435;BME280;3250;42.694;23.278;2023-03-04T00:25:19;94817.16;;;5.96;96.66
6435;BME280;3250;42.694;23.278;2023-03-04T00:27:44;94840.66;;;6.32;96.03
6435;BME280;3250;42.694;23.278;2023-03-04T00:30:11;94843.47;;;6.31;95.89
6435;BME280;3250;42.694;23.278;2023-03-04T00:32:36;94786.50;;;6.05;95.57
6435;BME280;3250;42.694;23.278;2023-03-04T00:35:02;94794.22;;;6.13;95.41
6435;BME280;3250;42.694;23.278;2023-03-04T00:37:27;94835.00;;;6.50;95.54
6435;BME280;3250;42.694;23.278;2023-03-04T00:39:53;94800.84;;;6.30;94.91
6435;BME280;3250;42.694;23.278;2023-03-04T00:42:18;94836.31;;;6.61;94.54
6435;BME280;3250;42.694;23.278;2023-03-04T00:44:44;94845.44;;;6.65;94.41
6435;BME280;3250;42.694;23.278;2023-03-04T00:47:09;94836.13;;;6.62;94.28
6435;BME280;3250;42.694;23.278;2023-03-04T00:49:34;94837.31;;;6.60;94.19
6435;BME280;3250;42.694;23.278;2023-03-04T00:52:02;94827.94;;;6.65;94.13
6435;BME280;3250;42.694;23.278;2023-03-04T00:54:27;94810.28;;;6.53;93.74
6435;BME280;3250;42.694;23.278;2023-03-04T00:56:52;94838.63;;;6.70;93.51
6435;BME280;3250;42.694;23.278;2023-03-04T00:59:18;94829.53;;;6.66;93.86
6435;BME280;3250;42.694;23.278;2023-03-04T01:01:43;94839.31;;;6.79;93.44
6435;BME280;3250;42.694;23.278;2023-03-04T01:04:09;94846.03;;;6.88;92.27
6435;BME280;3250;42.694;23.278;2023-03-04T01:06:34;94829.22;;;6.76;92.22
6435;BME280;3250;42.694;23.278;2023-03-04T01:08:59;94828.47;;;6.61;92.83
6435;BME280;3250;42.694;23.278;2023-03-04T01:11:26;94842.19;;;6.63;92.79
6435;BME280;3250;42.694;23.278;2023-03-04T01:13:51;94833.88;;;6.59;92.90
6435;BME280;3250;42.694;23.278;2023-03-04T01:16:17;94830.91;;;6.62;93.27
6435;BME280;3250;42.694;23.278;2023-03-04T01:18:42;94826.31;;;6.64;93.29
6435;BME280;3250;42.694;23.278;2023-03-04T01:21:08;94826.38;;;6.71;93.20
6435;BME280;3250;42.694;23.278;2023-03-04T01:23:34;94821.31;;;6.69;92.59
6435;BME280;3250;42.694;23.278;2023-03-04T01:25:59;94829.78;;;6.71;92.76
6435;BME280;3250;42.694;23.278;2023-03-04T01:28:25;94813.28;;;6.71;92.33
6435;BME280;3250;42.694;23.278;2023-03-04T01:30:50;94815.78;;;6.79;92.11
6435;BME280;3250;42.694;23.278;2023-03-04T01:33:16;94822.00;;;6.78;91.90
6435;BME280;3250;42.694;23.278;2023-03-04T01:35:41;94806.47;;;6.76;91.76
6435;BME280;3250;42.694;23.278;2023-03-04T01:38:07;94815.41;;;6.82;91.34
6435;BME280;3250;42.694;23.278;2023-03-04T01:40:32;94770.53;;;6.57;90.97
6435;BME280;3250;42.694;23.278;2023-03-04T01:42:58;94796.19;;;6.75;91.04
6435;BME280;3250;42.694;23.278;2023-03-04T01:45:24;94797.22;;;6.74;90.79
6435;BME280;3250;42.694;23.278;2023-03-04T01:47:50;94753.94;;;6.50;90.41
6435;BME280;3250;42.694;23.278;2023-03-04T01:50:23;94802.31;;;6.82;90.10
6435;BME280;3250;42.694;23.278;2023-03-04T01:52:51;94797.59;;;6.71;89.83
6435;BME280;3250;42.694;23.278;2023-03-04T01:55:18;94790.50;;;6.65;90.54
6435;BME280;3250;42.694;23.278;2023-03-04T01:57:45;94793.72;;;6.67;89.88
6435;BME280;3250;42.694;23.278;2023-03-04T02:00:29;94792.22;;;6.58;90.52
6435;BME280;3250;42.694;23.278;2023-03-04T02:03:02;94793.03;;;6.58;90.28
6435;BME280;3250;42.694;23.278;2023-03-04T02:05:28;94796.59;;;6.51;90.70
6435;BME280;3250;42.694;23.278;2023-03-04T02:07:55;94794.72;;;6.44;90.94
6435;BME280;3250;42.694;23.278;2023-03-04T02:10:21;94798.00;;;6.32;91.24
6435;BME280;3250;42.694;23.278;2023-03-04T02:12:47;94791.97;;;6.31;91.40
6435;BME280;3250;42.694;23.278;2023-03-04T02:15:13;94788.13;;;6.27;91.82
6435;BME280;3250;42.694;23.278;2023-03-04T02:17:38;94789.19;;;6.33;92.08
6435;BME280;3250;42.694;23.278;2023-03-04T02:23:10;94780.00;;;6.37;92.18
6435;BME280;3250;42.694;23.278;2023-03-04T02:26:13;94784.22;;;6.38;91.60
6435;BME280;3250;42.694;23.278;2023-03-04T02:28:40;94774.94;;;6.35;91.67
6435;BME280;3250;42.694;23.278;2023-03-04T02:31:05;94783.03;;;6.40;92.01
6435;BME280;3250;42.694;23.278;2023-03-04T02:33:31;94785.28;;;6.43;91.64
6435;BME280;3250;42.694;23.278;2023-03-04T02:35:57;94788.06;;;6.42;91.56
6435;BME280;3250;42.694;23.278;2023-03-04T02:38:23;94787.44;;;6.40;91.51
6435;BME280;3250;42.694;23.278;2023-03-04T02:40:50;94768.44;;;6.31;92.02
6435;BME280;3250;42.694;23.278;2023-03-04T02:43:18;94733.50;;;6.11;92.86
6435;BME280;3250;42.694;23.278;2023-03-04T02:45:48;94744.50;;;6.28;92.36
6435;BME280;3250;42.694;23.278;2023-03-04T02:48:19;94772.47;;;6.49;91.55
6435;BME280;3250;42.694;23.278;2023-03-04T02:50:52;94738.84;;;6.24;91.34
6435;BME280;3250;42.694;23.278;2023-03-04T02:53:19;94770.97;;;6.39;90.95
6435;BME280;3250;42.694;23.278;2023-03-04T02:55:45;94767.22;;;6.27;91.11
6435;BME280;3250;42.694;23.278;2023-03-04T02:58:11;94741.00;;;5.99;91.58
6435;BME280;3250;42.694;23.278;2023-03-04T03:00:38;94770.25;;;6.10;92.36
6435;BME280;3250;42.694;23.278;2023-03-04T03:03:04;94770.88;;;6.12;92.41
6435;BME280;3250;42.694;23.278;2023-03-04T03:05:32;94770.72;;;6.13;91.92
6435;BME280;3250;42.694;23.278;2023-03-04T03:07:58;94730.25;;;5.88;91.78
6435;BME280;3250;42.694;23.278;2023-03-04T03:10:24;94726.34;;;5.84;91.21
6435;BME280;3250;42.694;23.278;2023-03-04T03:12:50;94775.84;;;6.06;91.46
6435;BME280;3250;42.694;23.278;2023-03-04T03:15:15;94774.09;;;5.92;91.69
6435;BME280;3250;42.694;23.278;2023-03-04T03:17:41;94777.97;;;5.96;91.68
6435;BME280;3250;42.694;23.278;2023-03-04T03:20:08;94747.72;;;5.73;92.18
6435;BME280;3250;42.694;23.278;2023-03-04T03:22:34;94740.69;;;5.73;92.16
6435;BME280;3250;42.694;23.278;2023-03-04T03:24:59;94725.88;;;5.59;92.42
6435;BME280;3250;42.694;23.278;2023-03-04T03:27:25;94765.97;;;5.87;92.71
6435;BME280;3250;42.694;23.278;2023-03-04T03:29:50;94775.97;;;5.98;92.36
6435;BME280;3250;42.694;23.278;2023-03-04T03:32:16;94772.66;;;5.90;92.45
6435;BME280;3250;42.694;23.278;2023-03-04T03:34:41;94777.00;;;5.68;92.96
6435;BME280;3250;42.694;23.278;2023-03-04T03:37:06;94769.69;;;5.63;93.62
6435;BME280;3250;42.694;23.278;2023-03-04T03:39:32;94770.09;;;5.60;94.24
6435;BME280;3250;42.694;23.278;2023-03-04T03:41:57;94703.78;;;5.25;93.85
6435;BME280;3250;42.694;23.278;2023-03-04T03:44:23;94744.78;;;5.46;94.07
6435;BME280;3250;42.694;23.278;2023-03-04T03:46:48;94718.53;;;5.33;93.54
6435;BME280;3250;42.694;23.278;2023-03-04T03:49:13;94766.19;;;5.56;93.22
6435;BME280;3250;42.694;23.278;2023-03-04T03:51:39;94767.19;;;5.55;93.42
6435;BME280;3250;42.694;23.278;2023-03-04T03:54:04;94770.78;;;5.54;92.79
6435;BME280;3250;42.694;23.278;2023-03-04T03:56:29;94771.53;;;5.48;92.91
6435;BME280;3250;42.694;23.278;2023-03-04T03:58:55;94746.25;;;5.34;92.34
6435;BME280;3250;42.694;23.278;2023-03-04T04:01:20;94708.19;;;5.10;92.98
6435;BME280;3250;42.694;23.278;2023-03-04T04:03:46;94758.03;;;5.45;92.19
6435;BME280;3250;42.694;23.278;2023-03-04T04:06:11;94755.97;;;5.40;92.53
6435;BME280;3250;42.694;23.278;2023-03-04T04:08:37;94756.31;;;5.37;92.40
6435;BME280;3250;42.694;23.278;2023-03-04T04:11:02;94716.66;;;5.12;92.10
6435;BME280;3250;42.694;23.278;2023-03-04T04:13:27;94748.22;;;5.32;92.59
6435;BME280;3250;42.694;23.278;2023-03-04T04:15:53;94735.44;;;5.22;92.32
6435;BME280;3250;42.694;23.278;2023-03-04T04:18:18;94743.09;;;5.24;92.22
6435;BME280;3250;42.694;23.278;2023-03-04T04:20:45;94752.91;;;5.22;92.05
6435;BME280;3250;42.694;23.278;2023-03-04T04:23:10;94749.88;;;5.18;91.94
6435;BME280;3250;42.694;23.278;2023-03-04T04:25:36;94699.03;;;4.85;92.33
6435;BME280;3250;42.694;23.278;2023-03-04T04:28:02;94749.94;;;5.10;92.13
6435;BME280;3250;42.694;23.278;2023-03-04T04:30:27;94716.47;;;4.84;92.18
6435;BME280;3250;42.694;23.278;2023-03-04T04:32:53;94747.06;;;5.05;92.67
6435;BME280;3250;42.694;23.278;2023-03-04T04:35:18;94696.41;;;4.70;92.37
6435;BME280;3250;42.694;23.278;2023-03-04T04:37:43;94746.16;;;4.98;92.83
6435;BME280;3250;42.694;23.278;2023-03-04T04:40:09;94744.63;;;4.89;92.19
6435;BME280;3250;42.694;23.278;2023-03-04T04:42:35;94752.44;;;4.89;92.33
6435;BME280;3250;42.694;23.278;2023-03-04T04:45:00;94744.38;;;4.84;92.24
6435;BME280;3250;42.694;23.278;2023-03-04T04:47:26;94687.56;;;4.42;92.84
6435;BME280;3250;42.694;23.278;2023-03-04T04:49:51;94717.09;;;4.57;92.55
6435;BME280;3250;42.694;23.278;2023-03-04T04:52:17;94746.25;;;4.75;92.05
6435;BME280;3250;42.694;23.278;2023-03-04T04:54:42;94743.34;;;4.70;92.25
6435;BME280;3250;42.694;23.278;2023-03-04T04:57:08;94703.66;;;4.45;92.37
6435;BME280;3250;42.694;23.278;2023-03-04T04:59:33;94754.41;;;4.72;92.38
6435;BME280;3250;42.694;23.278;2023-03-04T05:01:59;94694.38;;;4.28;92.15
6435;BME280;3250;42.694;23.278;2023-03-04T05:04:24;94770.38;;;4.69;91.96
6435;BME280;3250;42.694;23.278;2023-03-04T05:06:50;94760.84;;;4.62;92.44
6435;BME280;3250;42.694;23.278;2023-03-04T05:09:15;94754.38;;;4.58;92.99
6435;BME280;3250;42.694;23.278;2023-03-04T05:11:41;94775.78;;;4.68;92.93
6435;BME280;3250;42.694;23.278;2023-03-04T05:14:06;94773.81;;;4.70;92.62
6435;BME280;3250;42.694;23.278;2023-03-04T05:16:31;94781.28;;;4.73;92.57
6435;BME280;3250;42.694;23.278;2023-03-04T05:18:57;94787.16;;;4.75;92.80
6435;BME280;3250;42.694;23.278;2023-03-04T05:21:23;94776.72;;;4.75;92.70
6435;BME280;3250;42.694;23.278;2023-03-04T05:23:48;94770.84;;;4.73;92.45
6435;BME280;3250;42.694;23.278;2023-03-04T05:26:16;94787.41;;;4.80;92.26
6435;BME280;3250;42.694;23.278;2023-03-04T05:28:43;94759.44;;;4.74;92.23
6435;BME280;3250;42.694;23.278;2023-03-04T05:31:09;94790.13;;;4.86;91.91
6435;BME280;3250;42.694;23.278;2023-03-04T05:33:34;94792.22;;;4.91;92.37
6435;BME280;3250;42.694;23.278;2023-03-04T05:36:03;94791.66;;;4.96;92.20
6435;BME280;3250;42.694;23.278;2023-03-04T05:38:28;94754.84;;;4.76;92.29
6435;BME280;3250;42.694;23.278;2023-03-04T05:40:59;94782.94;;;5.03;92.28
6435;BME280;3250;42.694;23.278;2023-03-04T05:43:26;94780.44;;;5.10;92.74
6435;BME280;3250;42.694;23.278;2023-03-04T05:45:52;94792.13;;;5.14;92.90
6435;BME280;3250;42.694;23.278;2023-03-04T05:48:18;94785.13;;;5.14;93.30
6435;BME280;3250;42.694;23.278;2023-03-04T05:50:44;94743.91;;;4.95;93.11
6435;BME280;3250;42.694;23.278;2023-03-04T05:53:09;94773.06;;;5.13;93.04
6435;BME280;3250;42.694;23.278;2023-03-04T05:55:35;94776.38;;;5.22;93.35
6435;BME280;3250;42.694;23.278;2023-03-04T05:58:00;94799.25;;;5.35;93.13
6435;BME280;3250;42.694;23.278;2023-03-04T06:00:25;94749.59;;;4.99;92.78
6435;BME280;3250;42.694;23.278;2023-03-04T06:02:51;94802.78;;;5.27;93.13
6435;BME280;3250;42.694;23.278;2023-03-04T06:05:17;94796.81;;;5.33;93.01
6435;BME280;3250;42.694;23.278;2023-03-04T06:07:43;94809.88;;;5.48;92.99
6435;BME280;3250;42.694;23.278;2023-03-04T06:10:10;94814.09;;;5.49;92.56
6435;BME280;3250;42.694;23.278;2023-03-04T06:12:36;94786.03;;;5.36;92.84
6435;BME280;3250;42.694;23.278;2023-03-04T06:15:01;94809.41;;;5.59;92.77
6435;BME280;3250;42.694;23.278;2023-03-04T06:17:28;94814.19;;;5.70;92.80
6435;BME280;3250;42.694;23.278;2023-03-04T06:19:54;94808.47;;;5.81;92.59
6435;BME280;3250;42.694;23.278;2023-03-04T06:22:19;94785.06;;;5.73;92.80
6435;BME280;3250;42.694;23.278;2023-03-04T06:24:44;94778.88;;;5.74;92.26
6435;BME280;3250;42.694;23.278;2023-03-04T06:27:10;94824.13;;;6.11;92.16
6435;BME280;3250;42.694;23.278;2023-03-04T06:29:35;94825.47;;;6.21;91.93
6435;BME280;3250;42.694;23.278;2023-03-04T06:32:01;94824.78;;;6.34;91.54
6435;BME280;3250;42.694;23.278;2023-03-04T06:34:26;94825.34;;;6.51;91.56
6435;BME280;3250;42.694;23.278;2023-03-04T06:36:54;94814.22;;;6.63;91.28
6435;BME280;3250;42.694;23.278;2023-03-04T06:39:19;94828.09;;;6.85;91.34
6435;BME280;3250;42.694;23.278;2023-03-04T06:41:44;94815.50;;;6.95;91.00
6435;BME280;3250;42.694;23.278;2023-03-04T06:44:10;94823.69;;;7.13;90.11
6435;BME280;3250;42.694;23.278;2023-03-04T06:46:35;94823.78;;;7.27;89.86
6435;BME280;3250;42.694;23.278;2023-03-04T06:49:01;94816.34;;;7.30;89.35
6435;BME280;3250;42.694;23.278;2023-03-04T06:51:27;94824.88;;;7.39;88.87
6435;BME280;3250;42.694;23.278;2023-03-04T06:53:53;94828.16;;;7.47;88.74
6435;BME280;3250;42.694;23.278;2023-03-04T06:56:18;94823.34;;;7.51;88.37
6435;BME280;3250;42.694;23.278;2023-03-04T06:58:44;94830.22;;;7.52;88.05
6435;BME280;3250;42.694;23.278;2023-03-04T07:03:36;94835.47;;;7.58;86.15
6435;BME280;3250;42.694;23.278;2023-03-04T07:06:01;94797.47;;;7.35;85.25
6435;BME280;3250;42.694;23.278;2023-03-04T07:08:27;94815.44;;;7.44;85.61
6435;BME280;3250;42.694;23.278;2023-03-04T07:10:52;94843.72;;;7.55;85.74
6435;BME280;3250;42.694;23.278;2023-03-04T07:13:18;94847.13;;;7.56;85.66
6435;BME280;3250;42.694;23.278;2023-03-04T07:15:43;94835.19;;;7.47;85.66
6435;BME280;3250;42.694;23.278;2023-03-04T07:18:08;94839.28;;;7.56;85.97
6435;BME280;3250;42.694;23.278;2023-03-04T07:20:34;94839.75;;;7.66;85.62
6435;BME280;3250;42.694;23.278;2023-03-04T07:22:59;94843.41;;;7.72;85.72
6435;BME280;3250;42.694;23.278;2023-03-04T07:25:25;94841.47;;;7.87;85.56
6435;BME280;3250;42.694;23.278;2023-03-04T07:27:50;94858.44;;;7.97;85.70
6435;BME280;3250;42.694;23.278;2023-03-04T07:30:18;94821.16;;;7.95;85.40
6435;BME280;3250;42.694;23.278;2023-03-04T07:32:44;94841.16;;;8.10;84.57
6435;BME280;3250;42.694;23.278;2023-03-04T07:35:09;94814.53;;;8.06;83.36
6435;BME280;3250;42.694;23.278;2023-03-04T07:37:34;94845.31;;;8.32;83.50
6435;BME280;3250;42.694;23.278;2023-03-04T07:40:00;94843.94;;;8.43;82.65
6435;BME280;3250;42.694;23.278;2023-03-04T07:42:25;94842.13;;;8.56;82.74
6435;BME280;3250;42.694;23.278;2023-03-04T07:44:51;94843.56;;;8.65;81.71
6435;BME280;3250;42.694;23.278;2023-03-04T07:47:17;94826.44;;;8.69;82.02
6435;BME280;3250;42.694;23.278;2023-03-04T07:49:42;94838.38;;;8.79;81.62
6435;BME280;3250;42.694;23.278;2023-03-04T07:52:08;94833.91;;;8.92;80.67
6435;BME280;3250;42.694;23.278;2023-03-04T07:54:33;94818.38;;;8.91;79.76
6435;BME280;3250;42.694;23.278;2023-03-04T07:56:58;94836.97;;;9.02;79.17
6435;BME280;3250;42.694;23.278;2023-03-04T07:59:24;94836.16;;;9.15;78.43
6435;BME280;3250;42.694;23.278;2023-03-04T08:01:50;94843.84;;;9.17;77.59
6435;BME280;3250;42.694;23.278;2023-03-04T08:04:15;94839.19;;;9.19;77.15
6435;BME280;3250;42.694;23.278;2023-03-04T08:06:40;94826.44;;;9.09;76.99
6435;BME280;3250;42.694;23.278;2023-03-04T08:09:07;94837.38;;;9.13;77.32
6435;BME280;3250;42.694;23.278;2023-03-04T08:11:36;94833.53;;;9.08;77.36
6435;BME280;3250;42.694;23.278;2023-03-04T08:14:02;94839.59;;;9.02;77.64
6435;BME280;3250;42.694;23.278;2023-03-04T08:16:28;94837.97;;;9.01;77.36
6435;BME280;3250;42.694;23.278;2023-03-04T08:18:56;94838.16;;;8.93;76.59
6435;BME280;3250;42.694;23.278;2023-03-04T08:21:22;94827.66;;;8.80;76.72
6435;BME280;3250;42.694;23.278;2023-03-04T08:23:48;94840.75;;;8.74;77.84
6435;BME280;3250;42.694;23.278;2023-03-04T08:26:18;94834.50;;;8.68;78.25
6435;BME280;3250;42.694;23.278;2023-03-04T08:28:44;94836.72;;;8.64;77.37
6435;BME280;3250;42.694;23.278;2023-03-04T08:31:11;94834.50;;;8.55;77.58
6435;BME280;3250;42.694;23.278;2023-03-04T08:33:37;94827.63;;;8.47;78.47
6435;BME280;3250;42.694;23.278;2023-03-04T08:36:03;94833.44;;;8.49;78.84
6435;BME280;3250;42.694;23.278;2023-03-04T08:38:28;94820.75;;;8.46;78.51
6435;BME280;3250;42.694;23.278;2023-03-04T08:40:55;94828.81;;;8.51;78.40
6435;BME280;3250;42.694;23.278;2023-03-04T08:43:22;94833.69;;;8.54;78.22
6435;BME280;3250;42.694;23.278;2023-03-04T08:45:48;94797.53;;;8.43;78.41
6435;BME280;3250;42.694;23.278;2023-03-04T08:48:14;94827.06;;;8.72;78.73
6435;BME280;3250;42.694;23.278;2023-03-04T08:50:39;94830.06;;;8.75;77.62
6435;BME280;3250;42.694;23.278;2023-03-04T08:53:04;94821.59;;;8.80;76.88
6435;BME280;3250;42.694;23.278;2023-03-04T08:55:30;94797.38;;;8.78;76.75
6435;BME280;3250;42.694;23.278;2023-03-04T08:57:55;94807.88;;;8.97;76.13
6435;BME280;3250;42.694;23.278;2023-03-04T09:00:21;94824.22;;;9.19;76.15
6435;BME280;3250;42.694;23.278;2023-03-04T09:02:48;94826.44;;;9.35;76.29
6435;BME280;3250;42.694;23.278;2023-03-04T09:05:13;94822.59;;;9.51;74.46
6435;BME280;3250;42.694;23.278;2023-03-04T09:07:38;94777.97;;;9.31;72.77
6435;BME280;3250;42.694;23.278;2023-03-04T09:10:04;94783.16;;;9.58;73.65
6435;BME280;3250;42.694;23.278;2023-03-04T09:12:30;94820.47;;;9.86;72.70
6435;BME280;3250;42.694;23.278;2023-03-04T09:14:55;94823.06;;;9.99;73.94
6435;BME280;3250;42.694;23.278;2023-03-04T09:17:21;94816.28;;;10.36;73.62
6435;BME280;3250;42.694;23.278;2023-03-04T09:19:46;94813.88;;;10.66;74.47
6435;BME280;3250;42.694;23.278;2023-03-04T09:22:12;94809.84;;;10.95;73.93
6435;BME280;3250;42.694;23.278;2023-03-04T09:24:37;94820.19;;;10.90;69.17
6435;BME280;3250;42.694;23.278;2023-03-04T09:27:02;94813.53;;;10.56;68.30
6435;BME280;3250;42.694;23.278;2023-03-04T09:29:28;94809.75;;;10.45;69.67
6435;BME280;3250;42.694;23.278;2023-03-04T09:31:53;94774.44;;;10.21;70.09
6435;BME280;3250;42.694;23.278;2023-03-04T09:34:19;94804.97;;;10.29;69.54
6435;BME280;3250;42.694;23.278;2023-03-04T09:36:44;94808.78;;;10.33;70.18
6435;BME280;3250;42.694;23.278;2023-03-04T09:39:09;94799.31;;;10.26;70.31
6435;BME280;3250;42.694;23.278;2023-03-04T09:41:39;94801.31;;;10.37;72.28
6435;BME280;3250;42.694;23.278;2023-03-04T09:46:56;94789.72;;;10.44;71.87
6435;BME280;3250;42.694;23.278;2023-03-04T09:49:23;94771.91;;;10.40;70.50
6435;BME280;3250;42.694;23.278;2023-03-04T09:52:10;94802.31;;;10.67;71.44
6435;BME280;3250;42.694;23.278;2023-03-04T09:57:29;94792.28;;;10.82;71.15
6435;BME280;3250;42.694;23.278;2023-03-04T10:00:18;94773.91;;;10.76;70.46
6435;BME280;3250;42.694;23.278;2023-03-04T10:05:50;94770.88;;;10.79;71.00
6435;BME280;3250;42.694;23.278;2023-03-04T10:10:59;94780.31;;;10.86;71.70
6435;BME280;3250;42.694;23.278;2023-03-04T10:13:38;94777.56;;;11.00;70.71
6435;BME280;3250;42.694;23.278;2023-03-04T10:16:07;94764.44;;;10.68;69.76
6435;BME280;3250;42.694;23.278;2023-03-04T10:18:41;94746.81;;;10.44;70.59
6435;BME280;3250;42.694;23.278;2023-03-04T10:23:39;94756.09;;;10.78;70.79
6435;BME280;3250;42.694;23.278;2023-03-04T10:26:14;94740.16;;;10.91;71.60
6435;BME280;3250;42.694;23.278;2023-03-04T10:28:40;94748.84;;;11.16;68.87
6435;BME280;3250;42.694;23.278;2023-03-04T10:33:47;94756.44;;;11.31;68.77
6435;BME280;3250;42.694;23.278;2023-03-04T10:39:02;94708.69;;;11.21;67.42
6435;BME280;3250;42.694;23.278;2023-03-04T10:41:31;94726.25;;;11.27;67.61
6435;BME280;3250;42.694;23.278;2023-03-04T10:44:14;94733.06;;;11.34;68.58
6435;BME280;3250;42.694;23.278;2023-03-04T10:46:42;94740.97;;;11.34;68.27
6435;BME280;3250;42.694;23.278;2023-03-04T10:49:10;94686.84;;;10.95;67.42
6435;BME280;3250;42.694;23.278;2023-03-04T10:51:50;94728.38;;;11.18;68.05
6435;BME280;3250;42.694;23.278;2023-03-04T10:54:52;94724.41;;;11.09;69.32
6435;BME280;3250;42.694;23.278;2023-03-04T10:57:21;94719.63;;;11.00;69.34
6435;BME280;3250;42.694;23.278;2023-03-04T10:59:55;94698.31;;;10.83;70.04
6435;BME280;3250;42.694;23.278;2023-03-04T11:02:34;94697.13;;;10.79;69.88
6435;BME280;3250;42.694;23.278;2023-03-04T11:07:48;94703.97;;;10.86;69.68
6435;BME280;3250;42.694;23.278;2023-03-04T11:12:40;94689.84;;;10.81;70.59
6435;BME280;3250;42.694;23.278;2023-03-04T11:15:27;94685.75;;;10.60;70.87
6435;BME280;3250;42.694;23.278;2023-03-04T11:17:56;94684.81;;;10.48;71.09
6435;BME280;3250;42.694;23.278;2023-03-04T11:20:35;94659.75;;;10.45;71.75
6435;BME280;3250;42.694;23.278;2023-03-04T11:23:15;94651.69;;;10.40;71.39
6435;BME280;3250;42.694;23.278;2023-03-04T11:25:43;94671.13;;;10.64;70.73
6435;BME280;3250;42.694;23.278;2023-03-04T11:30:40;94626.09;;;10.54;70.79
6435;BME280;3250;42.694;23.278;2023-03-04T11:33:14;94666.13;;;10.81;71.36
6435;BME280;3250;42.694;23.278;2023-03-04T11:36:03;94661.66;;;10.81;70.24
6435;BME280;3250;42.694;23.278;2023-03-04T11:38:53;94650.97;;;10.76;70.49
6435;BME280;3250;42.694;23.278;2023-03-04T11:41:33;94654.03;;;10.73;70.54
6435;BME280;3250;42.694;23.278;2023-03-04T11:44:00;94643.97;;;10.70;71.36
6435;BME280;3250;42.694;23.278;2023-03-04T12:02:07;94631.34;;;10.97;70.92
6435;BME280;3250;42.694;23.278;2023-03-04T12:05:33;94641.88;;;10.97;69.38
6435;BME280;3250;42.694;23.278;2023-03-04T12:26:57;94611.00;;;11.22;68.98
6435;BME280;3250;42.694;23.278;2023-03-04T12:32:17;94600.75;;;11.14;68.29
6435;BME280;3250;42.694;23.278;2023-03-04T12:35:11;94600.75;;;11.14;68.80
6435;BME280;3250;42.694;23.278;2023-03-04T12:46:14;94553.72;;;10.63;68.60
6435;BME280;3250;42.694;23.278;2023-03-04T12:48:47;94597.00;;;10.85;67.96
6435;BME280;3250;42.694;23.278;2023-03-04T12:59:04;94575.81;;;10.80;68.67
6435;BME280;3250;42.694;23.278;2023-03-04T13:01:40;94581.50;;;10.77;68.39
6435;BME280;3250;42.694;23.278;2023-03-04T13:07:28;94567.75;;;10.75;69.19
6435;BME280;3250;42.694;23.278;2023-03-04T13:10:13;94568.13;;;10.79;69.23
6435;BME280;3250;42.694;23.278;2023-03-04T13:12:55;94553.56;;;10.76;69.09
6435;BME280;3250;42.694;23.278;2023-03-04T13:21:07;94547.19;;;10.66;68.99
6435;BME280;3250;42.694;23.278;2023-03-04T13:23:43;94529.50;;;10.54;69.26
6435;BME280;3250;42.694;23.278;2023-03-04T13:29:08;94532.81;;;10.68;70.75
6435;BME280;3250;42.694;23.278;2023-03-04T13:32:01;94552.84;;;10.69;69.76
6435;BME280;3250;42.694;23.278;2023-03-04T13:37:26;94544.31;;;10.49;69.34
6435;BME280;3250;42.694;23.278;2023-03-04T13:42:45;94530.44;;;10.42;69.86
6435;BME280;3250;42.694;23.278;2023-03-04T13:45:35;94539.22;;;10.54;69.60
6435;BME280;3250;42.694;23.278;2023-03-04T13:48:04;94508.78;;;10.40;70.00
6435;BME280;3250;42.694;23.278;2023-03-04T13:50:36;94493.16;;;10.27;69.82
6435;BME280;3250;42.694;23.278;2023-03-04T13:53:32;94535.50;;;10.43;70.10
6435;BME280;3250;42.694;23.278;2023-03-04T13:58:37;94495.28;;;10.36;69.86
6435;BME280;3250;42.694;23.278;2023-03-04T14:01:03;94528.03;;;10.58;70.34
6435;BME280;3250;42.694;23.278;2023-03-04T14:03:30;94524.00;;;10.56;70.18
6435;BME280;3250;42.694;23.278;2023-03-04T14:06:31;94520.34;;;10.57;70.22
6435;BME280;3250;42.694;23.278;2023-03-04T14:08:57;94523.44;;;10.54;70.54
6435;BME280;3250;42.694;23.278;2023-03-04T14:11:28;94512.47;;;10.57;72.12
6435;BME280;3250;42.694;23.278;2023-03-04T14:13:58;94496.25;;;10.60;71.71
6435;BME280;3250;42.694;23.278;2023-03-04T14:16:27;94510.13;;;10.67;70.55
6435;BME280;3250;42.694;23.278;2023-03-04T14:19:02;94504.22;;;10.53;69.66
6435;BME280;3250;42.694;23.278;2023-03-04T14:21:29;94507.94;;;10.46;70.99
6435;BME280;3250;42.694;23.278;2023-03-04T14:24:06;94504.72;;;10.44;70.44
6435;BME280;3250;42.694;23.278;2023-03-04T14:26:33;94492.06;;;10.34;71.33
6435;BME280;3250;42.694;23.278;2023-03-04T14:28:59;94497.97;;;10.48;71.93
6435;BME280;3250;42.694;23.278;2023-03-04T14:31:29;94495.88;;;10.56;71.63
6435;BME280;3250;42.694;23.278;2023-03-04T14:33:56;94487.13;;;10.63;70.83
6435;BME280;3250;42.694;23.278;2023-03-04T14:36:31;94495.53;;;10.71;70.44
6435;BME280;3250;42.694;23.278;2023-03-04T14:38:59;94487.84;;;10.70;70.97
6435;BME280;3250;42.694;23.278;2023-03-04T14:41:32;94488.94;;;10.62;71.01
6435;BME280;3250;42.694;23.278;2023-03-04T14:46:58;94462.53;;;10.50;72.43
6435;BME280;3250;42.694;23.278;2023-03-04T14:49:25;94458.09;;;10.51;72.63
6435;BME280;3250;42.694;23.278;2023-03-04T14:51:52;94475.19;;;10.42;72.55
6435;BME280;3250;42.694;23.278;2023-03-04T14:57:01;94472.56;;;10.42;72.55
6435;BME280;3250;42.694;23.278;2023-03-04T14:59:39;94473.94;;;10.44;72.00
6435;BME280;3250;42.694;23.278;2023-03-04T15:02:34;94457.34;;;10.26;72.04
6435;BME280;3250;42.694;23.278;2023-03-04T15:04:59;94465.91;;;10.14;73.38
6435;BME280;3250;42.694;23.278;2023-03-04T15:07:36;94466.03;;;10.26;73.61
6435;BME280;3250;42.694;23.278;2023-03-04T15:10:07;94469.69;;;10.25;73.32
6435;BME280;3250;42.694;23.278;2023-03-04T15:12:36;94463.25;;;10.21;73.08
6435;BME280;3250;42.694;23.278;2023-03-04T15:15:29;94464.16;;;10.08;73.57